Saugatuck, Connecticut
Current Conditions -  °F | °C
As of 11:52 PM on Sunday 21 Dec 2014 (Local Time) from KBDR Reporting Station
Overcast Overcast  
Wind Chill: -1°   Ceiling: 4000
Heat Index:   Visibility: 10mi
Dew Point:   Wind: 7mph
Humidity: 89%   Direction: 20°NNE
Pressure: 30.33"   Gusts: NA
Location:  41.1454°N, 73.3462°W
Report Text: KBDR 220452Z AUTO 02006KT 10SM SCT022 OVC040 02/01 A3033 RMK AO2 SLP271 T00220006 400280000 TSNO
Loading
Personal Weather Stations






























Interactive Weather Map New forecast layout! Learn more

10-Day Weather Forecast

Advertisements
Track Severe Weather on mobile